Time;durP1;ratioP1;P1;durP2;ratioP2;P2;SDS_P1;SDS_P2;PMS_P1;PMS_P2;Temp;Humidity;BMP_temperature;BMP_pressure;BME280_temperature;BME280_humidity;BME280_pressure;Samples;Min_cycle;Max_cycle;Signal;HPM_P1;HPM_P2
2023/07/14 00:01:33;;;;;;;2.60;2.40;;;;;;;;;;5015220;28;20545;-57
2023/07/14 00:04:00;;;;;;;2.40;2.20;;;;;;;;;;5015440;28;20733;-57
2023/07/14 00:06:27;;;;;;;3.67;2.27;;;;;;;;;;5015350;28;20454;-57
2023/07/14 00:08:55;;;;;;;2.67;2.20;;;;;;;;;;5015098;28;20964;-57
2023/07/14 00:11:22;;;;;;;2.40;2.20;;;;;;;;;;5015113;28;20481;-56
2023/07/14 00:13:50;;;;;;;2.00;1.90;;;;;;;;;;5015071;28;20458;-57
2023/07/14 00:16:19;;;;;;;2.60;2.17;;;;;;;;;;5014826;28;20525;-57
2023/07/14 00:18:47;;;;;;;3.00;2.67;;;;;;;;;;5015073;28;20460;-59
2023/07/14 00:21:15;;;;;;;3.20;2.37;;;;;;;;;;5015015;28;20549;-57
2023/07/14 00:23:43;;;;;;;3.87;2.57;;;;;;;;;;5014881;28;20483;-58
2023/07/14 00:26:13;;;;;;;2.80;2.07;;;;;;;;;;5014777;28;20860;-57
2023/07/14 00:28:40;;;;;;;2.80;2.60;;;;;;;;;;5014963;28;20447;-57
2023/07/14 00:31:10;;;;;;;2.00;1.80;;;;;;;;;;5014853;28;20869;-56
2023/07/14 00:33:38;;;;;;;2.07;1.97;;;;;;;;;;5014833;28;20520;-57
2023/07/14 00:36:06;;;;;;;3.53;1.83;;;;;;;;;;5014628;28;20482;-57
2023/07/14 00:38:34;;;;;;;3.07;2.60;;;;;;;;;;5014632;28;20462;-57
2023/07/14 00:41:01;;;;;;;2.20;2.00;;;;;;;;;;5014465;28;20892;-57
2023/07/14 00:43:29;;;;;;;3.47;2.50;;;;;;;;;;5014653;28;20463;-57
2023/07/14 00:45:56;;;;;;;2.10;2.00;;;;;;;;;;5014601;28;20457;-58
2023/07/14 00:48:24;;;;;;;2.40;2.20;;;;;;;;;;5014532;28;20795;-57
2023/07/14 00:50:55;;;;;;;2.40;2.20;;;;;;;;;;5014360;28;20445;-57
2023/07/14 00:53:24;;;;;;;2.60;2.40;;;;;;;;;;5014168;28;20548;-58
2023/07/14 00:55:54;;;;;;;2.53;2.33;;;;;;;;;;5014184;28;20968;-57
2023/07/14 00:58:22;;;;;;;2.40;2.20;;;;;;;;;;5014445;28;20457;-57
2023/07/14 01:01:02;;;;;;;2.57;2.37;;;;;;;;;;5014417;28;20457;-57
2023/07/14 01:03:29;;;;;;;2.80;2.60;;;;;;;;;;5014165;28;20552;-57
2023/07/14 01:05:58;;;;;;;2.70;2.50;;;;;;;;;;5014106;28;20820;-57
2023/07/14 01:08:25;;;;;;;4.97;2.70;;;;;;;;;;5013978;28;20974;-56
2023/07/14 01:10:53;;;;;;;3.73;2.63;;;;;;;;;;5014131;28;20538;-58
2023/07/14 01:13:20;;;;;;;2.57;2.47;;;;;;;;;;5014100;28;20872;-56
2023/07/14 01:15:47;;;;;;;4.80;2.80;;;;;;;;;;5013921;28;20518;-56
2023/07/14 01:18:14;;;;;;;3.20;2.33;;;;;;;;;;5013844;28;20550;-56
2023/07/14 01:20:41;;;;;;;5.20;3.10;;;;;;;;;;5013791;28;20459;-57
2023/07/14 01:23:15;;;;;;;3.10;2.40;;;;;;;;;;5013937;28;20434;-57
2023/07/14 01:25:51;;;;;;;2.43;2.23;;;;;;;;;;5013875;28;20461;-57
2023/07/14 01:28:19;;;;;;;2.73;2.57;;;;;;;;;;5013751;28;20455;-55
2023/07/14 01:30:46;;;;;;;3.27;2.90;;;;;;;;;;5013629;28;20458;-57
2023/07/14 01:33:15;;;;;;;2.77;2.57;;;;;;;;;;5013534;28;20453;-57
2023/07/14 01:35:45;;;;;;;2.77;2.50;;;;;;;;;;5013606;28;20499;-57
2023/07/14 01:38:12;;;;;;;2.70;2.50;;;;;;;;;;5013686;28;20464;-57
2023/07/14 01:40:40;;;;;;;3.10;2.47;;;;;;;;;;5013552;28;20453;-57
2023/07/14 01:43:07;;;;;;;2.90;2.50;;;;;;;;;;5013454;28;20476;-58
2023/07/14 01:45:40;;;;;;;3.07;2.63;;;;;;;;;;5013372;28;20457;-57
2023/07/14 01:48:10;;;;;;;2.97;2.13;;;;;;;;;;5013610;28;20465;-57
2023/07/14 01:50:37;;;;;;;2.80;2.50;;;;;;;;;;5013440;28;20457;-56
2023/07/14 01:53:06;;;;;;;3.77;2.90;;;;;;;;;;5013417;28;20453;-57
2023/07/14 01:55:35;;;;;;;3.10;2.90;;;;;;;;;;5013413;28;20544;-57
2023/07/14 01:58:05;;;;;;;3.40;2.00;;;;;;;;;;5012931;28;20499;-57
2023/07/14 02:00:32;;;;;;;2.97;2.73;;;;;;;;;;5013426;28;20544;-57
2023/07/14 02:03:00;;;;;;;3.07;2.87;;;;;;;;;;5013317;28;20547;-58
2023/07/14 02:05:30;;;;;;;3.00;2.70;;;;;;;;;;5013283;28;20960;-57
2023/07/14 02:07:59;;;;;;;3.63;2.57;;;;;;;;;;5012770;28;20461;-55
2023/07/14 02:10:26;;;;;;;3.13;2.93;;;;;;;;;;5013056;28;20453;-56
2023/07/14 02:12:55;;;;;;;2.93;2.70;;;;;;;;;;5013318;28;20478;-57
2023/07/14 02:15:24;;;;;;;2.93;2.67;;;;;;;;;;5013274;28;20485;-57
2023/07/14 02:17:52;;;;;;;3.40;3.13;;;;;;;;;;5013137;28;20489;-57
2023/07/14 02:20:22;;;;;;;2.70;2.57;;;;;;;;;;5013114;28;20815;-57
2023/07/14 02:22:50;;;;;;;2.83;2.53;;;;;;;;;;5013366;28;20444;-56
2023/07/14 02:25:18;;;;;;;2.90;2.53;;;;;;;;;;5012898;28;20547;-55
2023/07/14 02:27:46;;;;;;;3.07;2.80;;;;;;;;;;5013159;28;20453;-56
2023/07/14 02:30:14;;;;;;;2.90;2.70;;;;;;;;;;5013034;28;20449;-57
2023/07/14 02:32:44;;;;;;;2.67;2.47;;;;;;;;;;5013072;28;20491;-54
2023/07/14 02:35:14;;;;;;;4.10;2.47;;;;;;;;;;5012890;28;20543;-57
2023/07/14 02:37:51;;;;;;;3.00;2.53;;;;;;;;;;5012740;28;20550;-57
2023/07/14 02:40:18;;;;;;;3.03;2.57;;;;;;;;;;5013025;28;20456;-57
2023/07/14 02:42:45;;;;;;;5.77;2.80;;;;;;;;;;5012918;28;20459;-58
2023/07/14 02:45:12;;;;;;;3.00;2.80;;;;;;;;;;5012961;28;20802;-57
2023/07/14 02:47:41;;;;;;;3.33;2.97;;;;;;;;;;5012832;28;20778;-57
2023/07/14 02:50:08;;;;;;;5.33;3.00;;;;;;;;;;5013179;28;20556;-56
2023/07/14 02:52:35;;;;;;;3.47;3.17;;;;;;;;;;5012895;28;20453;-57
2023/07/14 02:55:04;;;;;;;3.10;2.90;;;;;;;;;;5012879;28;20459;-58
2023/07/14 02:57:31;;;;;;;3.00;2.77;;;;;;;;;;5012473;28;21071;-57
2023/07/14 02:59:58;;;;;;;2.60;2.40;;;;;;;;;;5012716;28;20459;-57
2023/07/14 03:02:25;;;;;;;3.20;2.47;;;;;;;;;;5012680;28;20488;-57
2023/07/14 03:04:52;;;;;;;3.37;3.07;;;;;;;;;;5012577;28;20461;-56
2023/07/14 03:07:18;;;;;;;3.37;3.07;;;;;;;;;;5012769;28;20543;-55
2023/07/14 03:09:45;;;;;;;2.80;2.60;;;;;;;;;;5012738;28;20459;-57
2023/07/14 03:12:14;;;;;;;3.70;3.00;;;;;;;;;;5012666;28;20452;-57
2023/07/14 03:14:40;;;;;;;2.90;2.70;;;;;;;;;;5012601;28;20452;-57
2023/07/14 03:17:08;;;;;;;3.10;2.53;;;;;;;;;;5012363;28;20498;-56
2023/07/14 03:19:35;;;;;;;3.20;3.00;;;;;;;;;;5014668;28;20949;-56
2023/07/14 03:22:01;;;;;;;2.80;2.60;;;;;;;;;;5016187;28;20452;-57
2023/07/14 03:24:28;;;;;;;2.90;2.67;;;;;;;;;;5016117;28;20537;-56
2023/07/14 03:26:56;;;;;;;3.70;2.80;;;;;;;;;;5015863;28;20970;-56
2023/07/14 03:29:24;;;;;;;3.83;3.10;;;;;;;;;;5015828;28;20452;-56
2023/07/14 03:31:51;;;;;;;3.90;3.00;;;;;;;;;;5015751;28;20527;-56
2023/07/14 03:34:18;;;;;;;3.40;3.20;;;;;;;;;;5015948;28;20803;-57
2023/07/14 03:36:55;;;;;;;3.63;3.00;;;;;;;;;;5016458;28;20489;-64
2023/07/14 03:39:24;;;;;;;3.07;2.87;;;;;;;;;;5015172;28;20527;-57
2023/07/14 03:41:52;;;;;;;2.97;2.77;;;;;;;;;;5015518;28;20958;-57
2023/07/14 03:44:19;;;;;;;5.30;3.50;;;;;;;;;;5015557;28;20553;-58
2023/07/14 03:46:47;;;;;;;6.00;3.37;;;;;;;;;;5015742;28;20540;-57
2023/07/14 03:49:14;;;;;;;3.03;2.83;;;;;;;;;;5015628;28;20881;-58
2023/07/14 03:51:41;;;;;;;3.10;2.90;;;;;;;;;;5015446;28;20453;-57
2023/07/14 03:54:08;;;;;;;3.27;2.77;;;;;;;;;;5015508;28;20449;-57
2023/07/14 03:56:35;;;;;;;3.17;2.90;;;;;;;;;;5015149;28;20480;-56
2023/07/14 03:59:02;;;;;;;3.30;3.10;;;;;;;;;;5015194;28;20452;-57
2023/07/14 04:01:28;;;;;;;3.40;3.20;;;;;;;;;;5015503;28;20464;-57
2023/07/14 04:03:57;;;;;;;2.67;2.47;;;;;;;;;;5015167;28;20957;-55
2023/07/14 04:06:24;;;;;;;2.80;2.60;;;;;;;;;;5015269;28;20508;-56
2023/07/14 04:08:52;;;;;;;3.40;3.10;;;;;;;;;;5015224;28;20555;-57
2023/07/14 04:11:19;;;;;;;3.87;3.57;;;;;;;;;;5015025;28;20467;-57
2023/07/14 04:13:46;;;;;;;4.10;3.70;;;;;;;;;;5015244;28;20461;-56
2023/07/14 04:16:13;;;;;;;3.03;2.70;;;;;;;;;;5015170;28;20544;-57
2023/07/14 04:18:40;;;;;;;3.50;3.20;;;;;;;;;;5014985;28;20496;-57
2023/07/14 04:21:10;;;;;;;3.20;2.87;;;;;;;;;;5015020;28;20842;-57
2023/07/14 04:23:37;;;;;;;3.00;2.70;;;;;;;;;;5014874;28;20460;-57
2023/07/14 04:26:04;;;;;;;4.53;3.00;;;;;;;;;;5014760;28;20539;-56
2023/07/14 04:28:31;;;;;;;5.63;2.93;;;;;;;;;;5014939;28;21055;-56
2023/07/14 04:31:00;;;;;;;3.30;2.87;;;;;;;;;;5014468;28;20452;-56
2023/07/14 04:33:27;;;;;;;3.07;2.87;;;;;;;;;;5014784;28;20878;-58
2023/07/14 04:35:54;;;;;;;3.87;3.57;;;;;;;;;;5014697;28;20457;-56
2023/07/14 04:38:24;;;;;;;2.90;2.70;;;;;;;;;;5014485;28;20484;-57
2023/07/14 04:40:52;;;;;;;5.70;3.10;;;;;;;;;;5015050;28;20511;-57
2023/07/14 04:43:19;;;;;;;3.03;2.83;;;;;;;;;;5014665;28;20453;-57
2023/07/14 04:45:46;;;;;;;4.13;3.37;;;;;;;;;;5014520;28;20449;-54
2023/07/14 04:48:15;;;;;;;3.77;3.50;;;;;;;;;;5014528;28;20449;-57
2023/07/14 04:50:45;;;;;;;5.87;3.33;;;;;;;;;;5014316;28;20453;-57
2023/07/14 04:53:12;;;;;;;3.40;3.00;;;;;;;;;;5014234;28;20546;-57
2023/07/14 04:55:41;;;;;;;6.60;3.10;;;;;;;;;;5014304;28;20964;-58
2023/07/14 04:58:08;;;;;;;3.53;3.23;;;;;;;;;;5014306;28;20515;-57
2023/07/14 05:00:35;;;;;;;3.20;3.00;;;;;;;;;;5014244;28;20453;-58
2023/07/14 05:03:02;;;;;;;3.33;3.00;;;;;;;;;;5014177;28;20892;-57
2023/07/14 05:05:30;;;;;;;2.63;2.43;;;;;;;;;;5014045;28;20467;-58
2023/07/14 05:07:57;;;;;;;6.07;4.00;;;;;;;;;;5014239;28;20464;-58
2023/07/14 05:10:25;;;;;;;3.30;3.03;;;;;;;;;;5014079;28;20458;-57
2023/07/14 05:12:54;;;;;;;3.30;3.00;;;;;;;;;;5013941;28;20456;-57
2023/07/14 05:15:21;;;;;;;3.10;2.80;;;;;;;;;;5013909;28;20461;-57
2023/07/14 05:17:48;;;;;;;3.50;3.20;;;;;;;;;;5013870;28;20827;-57
2023/07/14 05:20:16;;;;;;;3.77;3.53;;;;;;;;;;5013703;28;20812;-58
2023/07/14 05:22:44;;;;;;;3.10;2.60;;;;;;;;;;5013723;28;21024;-57
2023/07/14 05:25:11;;;;;;;6.03;3.50;;;;;;;;;;5013630;28;21039;-58
2023/07/14 05:27:38;;;;;;;10.20;3.83;;;;;;;;;;5013845;28;20555;-56
2023/07/14 05:30:09;;;;;;;88.13;14.13;;;;;;;;;;5013705;28;20902;-57
2023/07/14 05:32:35;;;;;;;3.83;3.53;;;;;;;;;;5013496;28;20535;-58
2023/07/14 05:35:02;;;;;;;6.57;3.73;;;;;;;;;;5013704;28;20547;-56
2023/07/14 05:37:29;;;;;;;4.73;3.70;;;;;;;;;;5013587;28;20480;-56
2023/07/14 05:39:56;;;;;;;3.27;3.03;;;;;;;;;;5013532;28;20495;-57
2023/07/14 05:42:23;;;;;;;2.80;2.57;;;;;;;;;;5012886;28;20806;-58
2023/07/14 05:44:50;;;;;;;39.83;8.03;;;;;;;;;;5013410;28;20459;-57
2023/07/14 05:47:18;;;;;;;39.00;9.70;;;;;;;;;;5013263;28;20540;-57
2023/07/14 05:49:45;;;;;;;5.30;2.90;;;;;;;;;;5013487;28;20453;-58
2023/07/14 05:52:12;;;;;;;3.50;2.77;;;;;;;;;;5013452;28;20431;-57
2023/07/14 05:54:39;;;;;;;3.17;2.97;;;;;;;;;;5013349;28;20883;-57
2023/07/14 05:57:06;;;;;;;9.47;4.13;;;;;;;;;;5013089;28;20484;-57
2023/07/14 05:59:33;;;;;;;2.80;2.60;;;;;;;;;;5013192;28;20477;-57
2023/07/14 06:02:01;;;;;;;4.57;3.10;;;;;;;;;;5013097;28;20454;-58
2023/07/14 06:04:35;;;;;;;4.50;3.30;;;;;;;;;;5013309;28;20512;-57
2023/07/14 06:07:03;;;;;;;4.63;3.00;;;;;;;;;;5013165;28;20463;-57
2023/07/14 06:09:33;;;;;;;2.97;2.83;;;;;;;;;;5013102;28;20508;-57
2023/07/14 06:12:03;;;;;;;3.40;2.53;;;;;;;;;;5013100;28;20866;-56
2023/07/14 06:14:30;;;;;;;4.53;2.83;;;;;;;;;;5012910;28;20497;-58
2023/07/14 06:16:57;;;;;;;5.93;2.90;;;;;;;;;;5013025;28;20957;-58
2023/07/14 06:19:24;;;;;;;3.10;2.60;;;;;;;;;;5013057;28;20489;-58
2023/07/14 06:21:53;;;;;;;3.17;2.87;;;;;;;;;;5013203;28;20565;-57
2023/07/14 06:24:20;;;;;;;3.10;2.80;;;;;;;;;;5012942;28;20454;-57
2023/07/14 06:26:46;;;;;;;3.83;3.43;;;;;;;;;;5012790;28;20553;-54
2023/07/14 06:29:13;;;;;;;3.80;2.77;;;;;;;;;;5013161;28;20449;-57
2023/07/14 06:31:40;;;;;;;3.13;2.23;;;;;;;;;;5013006;28;20875;-57
2023/07/14 06:34:07;;;;;;;2.63;2.47;;;;;;;;;;5013005;28;20457;-57
2023/07/14 06:36:35;;;;;;;3.60;2.33;;;;;;;;;;5012949;28;20456;-57
2023/07/14 06:39:04;;;;;;;2.60;2.40;;;;;;;;;;5012752;28;21022;-57
2023/07/14 06:41:31;;;;;;;4.33;2.80;;;;;;;;;;5012724;28;20464;-58
2023/07/14 06:44:00;;;;;;;3.97;2.27;;;;;;;;;;5012949;28;20545;-56
2023/07/14 06:46:27;;;;;;;2.80;2.60;;;;;;;;;;5012865;28;20815;-58
2023/07/14 06:48:54;;;;;;;3.17;2.60;;;;;;;;;;5012852;28;20456;-57
2023/07/14 06:51:21;;;;;;;3.87;2.37;;;;;;;;;;5012527;28;21034;-57
2023/07/14 06:53:49;;;;;;;2.77;2.57;;;;;;;;;;5014938;28;20447;-58
2023/07/14 06:56:18;;;;;;;7.90;3.63;;;;;;;;;;5016428;28;20589;-58
2023/07/14 06:58:44;;;;;;;5.30;2.60;;;;;;;;;;5016449;28;20593;-57
2023/07/14 07:01:11;;;;;;;6.20;2.70;;;;;;;;;;5016518;28;20457;-57
2023/07/14 07:03:39;;;;;;;2.83;2.53;;;;;;;;;;5016171;28;20548;-57
2023/07/14 07:06:06;;;;;;;3.20;2.40;;;;;;;;;;5016308;28;20665;-57
2023/07/14 07:08:32;;;;;;;2.87;2.20;;;;;;;;;;5016256;28;20481;-58
2023/07/14 07:11:00;;;;;;;4.77;2.50;;;;;;;;;;5015995;28;20937;-57
2023/07/14 07:13:28;;;;;;;3.27;2.50;;;;;;;;;;5016245;28;20450;-56
2023/07/14 07:15:55;;;;;;;4.00;2.93;;;;;;;;;;5016156;28;20547;-55
2023/07/14 07:18:28;;;;;;;5.37;3.00;;;;;;;;;;5016030;28;20510;-53
2023/07/14 07:20:55;;;;;;;4.07;2.70;;;;;;;;;;5015953;28;20500;-50
2023/07/14 07:23:22;;;;;;;2.47;2.30;;;;;;;;;;5015947;28;20452;-51
2023/07/14 07:25:49;;;;;;;5.67;2.70;;;;;;;;;;5015984;28;20454;-55
2023/07/14 07:28:18;;;;;;;3.83;2.37;;;;;;;;;;5015768;28;20954;-55
2023/07/14 07:30:47;;;;;;;4.73;2.10;;;;;;;;;;5015809;28;20449;-56
2023/07/14 07:33:14;;;;;;;4.80;2.43;;;;;;;;;;5015680;28;20455;-51
2023/07/14 07:35:42;;;;;;;2.40;2.10;;;;;;;;;;5015606;28;20450;-57
2023/07/14 07:38:10;;;;;;;3.27;2.10;;;;;;;;;;5015850;28;20995;-59
2023/07/14 07:40:37;;;;;;;2.37;2.17;;;;;;;;;;5015617;28;20541;-53
2023/07/14 07:43:04;;;;;;;2.80;2.23;;;;;;;;;;5015670;28;20455;-58
2023/07/14 07:45:31;;;;;;;5.07;2.27;;;;;;;;;;5015486;28;20533;-54
2023/07/14 07:47:59;;;;;;;6.10;2.27;;;;;;;;;;5015449;28;20450;-55
2023/07/14 07:50:26;;;;;;;4.03;1.90;;;;;;;;;;5015249;28;20462;-58
2023/07/14 07:52:53;;;;;;;1.80;1.70;;;;;;;;;;5015606;28;20458;-57
2023/07/14 07:55:20;;;;;;;3.83;1.97;;;;;;;;;;5015476;28;20485;-57
2023/07/14 07:57:48;;;;;;;2.10;1.93;;;;;;;;;;5015215;28;20569;-58
2023/07/14 08:00:15;;;;;;;3.40;1.97;;;;;;;;;;5015339;28;20461;-57
2023/07/14 08:02:42;;;;;;;2.17;1.63;;;;;;;;;;5015179;28;20957;-58
2023/07/14 08:05:11;;;;;;;2.97;1.90;;;;;;;;;;5014550;28;20508;-57
2023/07/14 08:07:38;;;;;;;1.87;1.77;;;;;;;;;;5015248;28;20457;-57
2023/07/14 08:10:05;;;;;;;2.63;2.33;;;;;;;;;;5015208;28;20450;-58
2023/07/14 08:12:32;;;;;;;2.43;2.10;;;;;;;;;;5015065;28;20451;-57
2023/07/14 08:14:59;;;;;;;3.93;1.60;;;;;;;;;;5014973;28;20878;-59
2023/07/14 08:17:27;;;;;;;5.10;2.17;;;;;;;;;;5014894;28;20457;-57
2023/07/14 08:19:54;;;;;;;5.10;1.57;;;;;;;;;;5014819;28;21004;-58
2023/07/14 08:22:23;;;;;;;2.50;1.50;;;;;;;;;;5015107;28;20900;-58
2023/07/14 08:24:50;;;;;;;7.80;2.40;;;;;;;;;;5014801;28;20661;-58
2023/07/14 08:27:17;;;;;;;2.83;1.60;;;;;;;;;;5014796;28;20505;-56
2023/07/14 08:29:44;;;;;;;1.70;1.60;;;;;;;;;;5013931;28;20462;-57
2023/07/14 08:32:11;;;;;;;2.07;1.80;;;;;;;;;;5010985;28;20534;-56
2023/07/14 08:34:39;;;;;;;1.80;1.30;;;;;;;;;;5013799;28;20541;-59
2023/07/14 08:37:07;;;;;;;1.70;1.60;;;;;;;;;;5014230;28;20490;-58
2023/07/14 08:39:36;;;;;;;1.47;1.37;;;;;;;;;;5014160;28;20493;-58
2023/07/14 08:42:07;;;;;;;1.70;1.60;;;;;;;;;;5014131;28;20542;-58
2023/07/14 08:44:44;;;;;;;4.67;1.53;;;;;;;;;;5022283;28;20447;-58
2023/07/14 08:47:15;;;;;;;2.67;1.10;;;;;;;;;;5021277;28;20942;-58
2023/07/14 08:49:47;;;;;;;2.53;1.63;;;;;;;;;;5024007;28;20949;-58
2023/07/14 08:52:19;;;;;;;4.60;1.67;;;;;;;;;;5023642;28;21010;-58
2023/07/14 08:54:48;;;;;;;3.70;1.83;;;;;;;;;;5022322;28;20446;-58
2023/07/14 08:57:16;;;;;;;1.63;1.53;;;;;;;;;;5020598;28;20546;-57
2023/07/14 08:59:45;;;;;;;1.30;1.20;;;;;;;;;;5020759;28;20845;-59
2023/07/14 09:02:18;;;;;;;2.87;1.30;;;;;;;;;;5026234;28;20446;-57
2023/07/14 09:04:49;;;;;;;2.67;1.50;;;;;;;;;;5024297;28;20945;-57
2023/07/14 09:07:18;;;;;;;1.87;1.20;;;;;;;;;;5021880;28;20525;-57
2023/07/14 09:09:45;;;;;;;1.90;1.30;;;;;;;;;;5024132;28;20882;-57
2023/07/14 09:12:18;;;;;;;2.10;1.50;;;;;;;;;;5022255;28;20478;-59
2023/07/14 09:14:55;;;;;;;1.40;1.27;;;;;;;;;;5021194;28;20456;-57
2023/07/14 09:17:25;;;;;;;2.37;1.50;;;;;;;;;;5019704;28;20525;-57
2023/07/14 09:20:10;;;;;;;2.23;1.63;;;;;;;;;;5020585;28;20484;-57
2023/07/14 09:22:42;;;;;;;3.63;2.83;;;;;;;;;;5024351;28;20543;-58
2023/07/14 09:25:13;;;;;;;3.00;1.40;;;;;;;;;;5027798;28;20454;-57
2023/07/14 09:27:42;;;;;;;2.10;1.73;;;;;;;;;;5014256;28;20450;-57
2023/07/14 09:30:15;;;;;;;2.67;1.50;;;;;;;;;;5027028;28;20481;-57
2023/07/14 09:32:44;;;;;;;2.50;1.40;;;;;;;;;;5015576;28;20457;-57
2023/07/14 09:35:18;;;;;;;2.10;1.17;;;;;;;;;;5027265;28;20442;-58
2023/07/14 09:37:48;;;;;;;1.40;1.13;;;;;;;;;;5013342;28;20973;-58
2023/07/14 09:40:18;;;;;;;1.63;1.43;;;;;;;;;;5012842;28;20526;-57
2023/07/14 09:42:48;;;;;;;1.40;1.27;;;;;;;;;;5012720;28;20450;-57
2023/07/14 09:45:17;;;;;;;3.80;1.60;;;;;;;;;;5013140;28;20456;-57
2023/07/14 09:47:44;;;;;;;2.67;1.40;;;;;;;;;;5013074;28;20446;-56
2023/07/14 09:50:14;;;;;;;2.17;1.60;;;;;;;;;;5013076;28;20449;-57
2023/07/14 09:52:49;;;;;;;4.30;1.67;;;;;;;;;;5012831;28;20533;-57
2023/07/14 09:55:19;;;;;;;4.60;1.67;;;;;;;;;;5022218;28;20449;-55
2023/07/14 09:57:48;;;;;;;3.33;1.40;;;;;;;;;;5021596;28;20470;-57
2023/07/14 10:00:24;;;;;;;1.33;1.23;;;;;;;;;;5012822;28;20820;-57
2023/07/14 10:03:03;;;;;;;1.90;1.53;;;;;;;;;;5012953;28;21025;-60
2023/07/14 10:05:36;;;;;;;1.83;1.73;;;;;;;;;;5012521;28;20996;-54
2023/07/14 10:08:07;;;;;;;2.43;1.57;;;;;;;;;;5013345;28;20450;-54
2023/07/14 10:10:35;;;;;;;2.43;1.80;;;;;;;;;;5012891;28;21020;-57
2023/07/14 10:13:16;;;;;;;1.50;1.40;;;;;;;;;;5012874;28;20478;-54
2023/07/14 10:15:51;;;;;;;2.77;1.60;;;;;;;;;;5012471;28;20446;-56
2023/07/14 10:18:20;;;;;;;2.97;1.50;;;;;;;;;;5012397;28;20437;-57
2023/07/14 10:20:55;;;;;;;1.80;1.70;;;;;;;;;;5012515;28;20484;-57
2023/07/14 10:23:25;;;;;;;1.83;1.30;;;;;;;;;;5012446;28;20446;-57
2023/07/14 10:25:54;;;;;;;1.97;1.77;;;;;;;;;;5018941;28;20450;-57
2023/07/14 10:28:27;;;;;;;2.23;1.70;;;;;;;;;;5024484;28;20964;-57
2023/07/14 10:30:58;;;;;;;2.57;1.47;;;;;;;;;;5025666;28;20450;-56
2023/07/14 10:33:26;;;;;;;2.37;1.57;;;;;;;;;;5026801;28;20456;-57
2023/07/14 10:35:59;;;;;;;1.93;1.67;;;;;;;;;;5028755;28;20870;-57
2023/07/14 10:38:28;;;;;;;1.43;1.33;;;;;;;;;;5024976;28;20453;-57
2023/07/14 10:40:57;;;;;;;1.40;1.30;;;;;;;;;;5032144;28;20488;-57
2023/07/14 10:43:27;;;;;;;1.30;1.20;;;;;;;;;;5023512;28;20458;-57
2023/07/14 10:45:56;;;;;;;2.03;1.60;;;;;;;;;;5016743;28;20461;-58
2023/07/14 10:48:27;;;;;;;2.20;1.30;;;;;;;;;;5016670;28;20451;-57
2023/07/14 10:50:57;;;;;;;1.87;1.53;;;;;;;;;;5016658;28;20552;-57
2023/07/14 10:53:26;;;;;;;1.60;1.50;;;;;;;;;;5015952;28;20455;-57
2023/07/14 10:55:54;;;;;;;2.93;1.50;;;;;;;;;;5016497;28;20478;-58
2023/07/14 10:58:25;;;;;;;2.70;1.43;;;;;;;;;;5016718;28;20544;-58
2023/07/14 11:00:54;;;;;;;1.83;1.40;;;;;;;;;;5016496;28;20589;-57
2023/07/14 11:03:26;;;;;;;2.67;1.63;;;;;;;;;;5016430;28;20543;-57
2023/07/14 11:05:55;;;;;;;1.70;1.50;;;;;;;;;;5016222;28;20485;-57
2023/07/14 11:08:23;;;;;;;1.90;1.70;;;;;;;;;;5016429;28;20549;-57
2023/07/14 11:10:53;;;;;;;3.00;1.50;;;;;;;;;;5016286;28;20454;-57
2023/07/14 11:13:23;;;;;;;1.60;1.47;;;;;;;;;;5016267;28;20457;-57
2023/07/14 11:15:52;;;;;;;1.73;1.50;;;;;;;;;;5016096;28;20461;-57
2023/07/14 11:18:26;;;;;;;4.30;1.60;;;;;;;;;;5016170;28;20456;-58
2023/07/14 11:20:58;;;;;;;3.43;1.80;;;;;;;;;;5016184;28;20474;-57
2023/07/14 11:23:28;;;;;;;3.10;1.90;;;;;;;;;;5016183;28;20461;-57
2023/07/14 11:26:00;;;;;;;1.80;1.43;;;;;;;;;;5016024;28;20454;-57
2023/07/14 11:28:34;;;;;;;5.67;1.63;;;;;;;;;;5015890;28;20846;-57
2023/07/14 11:31:02;;;;;;;3.30;1.23;;;;;;;;;;5015667;28;20800;-57
2023/07/14 11:33:39;;;;;;;4.40;1.50;;;;;;;;;;5015931;28;20811;-57
2023/07/14 11:36:09;;;;;;;5.33;1.63;;;;;;;;;;5015719;28;20527;-57
2023/07/14 11:38:41;;;;;;;1.50;1.40;;;;;;;;;;5015530;28;20450;-57
2023/07/14 11:41:08;;;;;;;4.00;1.93;;;;;;;;;;5014908;28;20573;-57
2023/07/14 11:43:35;;;;;;;7.77;2.33;;;;;;;;;;5015487;28;20485;-57
2023/07/14 11:46:03;;;;;;;1.33;1.13;;;;;;;;;;5015853;28;20466;-57
2023/07/14 11:48:37;;;;;;;1.50;1.40;;;;;;;;;;5015532;28;20454;-58
2023/07/14 11:51:05;;;;;;;2.60;1.70;;;;;;;;;;5015506;28;20489;-57
2023/07/14 11:53:34;;;;;;;4.33;1.57;;;;;;;;;;5015414;28;20457;-57
2023/07/14 11:56:14;;;;;;;1.90;1.50;;;;;;;;;;5015091;28;20481;-57
2023/07/14 11:58:41;;;;;;;2.10;1.90;;;;;;;;;;5015393;28;20501;-57
2023/07/14 12:01:16;;;;;;;2.63;2.00;;;;;;;;;;5015139;28;20482;-57
2023/07/14 12:03:49;;;;;;;1.83;1.73;;;;;;;;;;5015371;28;20469;-57
2023/07/14 12:06:44;;;;;;;1.80;1.70;;;;;;;;;;5015225;28;20450;-58
2023/07/14 12:09:13;;;;;;;3.30;1.77;;;;;;;;;;5015221;28;20958;-57
2023/07/14 12:11:59;;;;;;;2.03;1.93;;;;;;;;;;5015204;28;20806;-57
2023/07/14 12:14:41;;;;;;;1.80;1.70;;;;;;;;;;5015132;28;20451;-57
2023/07/14 12:17:29;;;;;;;3.53;2.33;;;;;;;;;;5012041;28;20500;-57
2023/07/14 12:19:58;;;;;;;5.83;2.43;;;;;;;;;;5014794;28;20677;-57
2023/07/14 12:22:37;;;;;;;2.07;1.80;;;;;;;;;;5014918;28;20546;-57
2023/07/14 12:25:10;;;;;;;3.77;2.30;;;;;;;;;;5014708;28;20465;-58
2023/07/14 12:27:40;;;;;;;2.40;1.70;;;;;;;;;;5015179;28;20817;-58
2023/07/14 12:30:15;;;;;;;2.87;2.57;;;;;;;;;;5014927;28;20454;-58
2023/07/14 12:32:42;;;;;;;4.17;2.20;;;;;;;;;;5014625;28;21003;-58
2023/07/14 12:35:13;;;;;;;2.30;2.10;;;;;;;;;;5014699;28;20458;-58
2023/07/14 12:37:40;;;;;;;4.80;2.07;;;;;;;;;;5014555;28;20544;-58
2023/07/14 12:40:13;;;;;;;2.13;2.00;;;;;;;;;;5014774;28;20478;-58
2023/07/14 12:42:41;;;;;;;3.67;2.37;;;;;;;;;;5014582;28;20447;-58
2023/07/14 12:45:10;;;;;;;1.73;1.63;;;;;;;;;;5014660;28;20818;-58
2023/07/14 12:47:38;;;;;;;3.23;2.10;;;;;;;;;;5014391;28;20451;-58
2023/07/14 12:50:06;;;;;;;4.00;2.20;;;;;;;;;;5014319;28;21025;-58
2023/07/14 12:52:36;;;;;;;2.63;2.43;;;;;;;;;;5014446;28;20446;-57
2023/07/14 12:55:03;;;;;;;1.97;1.83;;;;;;;;;;5014319;28;20453;-58
2023/07/14 12:57:31;;;;;;;2.47;2.27;;;;;;;;;;5014140;28;20481;-58
2023/07/14 12:59:59;;;;;;;2.17;2.00;;;;;;;;;;5014151;28;20539;-58
2023/07/14 13:02:25;;;;;;;2.67;2.47;;;;;;;;;;5014253;28;20450;-58
2023/07/14 13:04:53;;;;;;;2.27;1.90;;;;;;;;;;5014055;28;20454;-58
2023/07/14 13:07:21;;;;;;;2.60;2.10;;;;;;;;;;5014431;28;20880;-58
2023/07/14 13:09:59;;;;;;;3.00;2.23;;;;;;;;;;5014179;28;20541;-59
2023/07/14 13:12:26;;;;;;;2.47;1.70;;;;;;;;;;5014071;28;20811;-58
2023/07/14 13:14:54;;;;;;;2.10;1.90;;;;;;;;;;5013953;28;20549;-59
2023/07/14 13:17:22;;;;;;;2.53;2.33;;;;;;;;;;5013717;28;20546;-59
2023/07/14 13:19:50;;;;;;;2.40;2.20;;;;;;;;;;5013965;28;20466;-59
2023/07/14 13:22:22;;;;;;;2.30;2.10;;;;;;;;;;5013934;28;20446;-59
2023/07/14 13:24:57;;;;;;;2.50;2.30;;;;;;;;;;5013929;28;20447;-59
2023/07/14 13:27:26;;;;;;;2.60;2.10;;;;;;;;;;5013811;28;20784;-58
2023/07/14 13:29:58;;;;;;;2.80;2.60;;;;;;;;;;5013594;28;20458;-59
2023/07/14 13:32:26;;;;;;;2.27;2.17;;;;;;;;;;5013815;28;20856;-59
2023/07/14 13:34:54;;;;;;;2.33;2.17;;;;;;;;;;5013663;28;20458;-59
2023/07/14 13:37:22;;;;;;;2.33;2.23;;;;;;;;;;5013645;28;20858;-58
2023/07/14 13:39:54;;;;;;;2.83;2.63;;;;;;;;;;5013485;28;20454;-58
2023/07/14 13:42:24;;;;;;;3.60;2.60;;;;;;;;;;5013380;28;20513;-58
2023/07/14 13:44:53;;;;;;;2.40;2.20;;;;;;;;;;5013624;28;20800;-58
2023/07/14 13:47:21;;;;;;;2.43;2.03;;;;;;;;;;5013426;28;20451;-59
2023/07/14 13:49:50;;;;;;;2.67;2.47;;;;;;;;;;5013575;28;20541;-58
2023/07/14 13:52:18;;;;;;;2.10;1.97;;;;;;;;;;5013442;28;20451;-58
2023/07/14 13:54:46;;;;;;;4.10;2.70;;;;;;;;;;5013252;28;20448;-59
2023/07/14 13:57:14;;;;;;;3.37;3.03;;;;;;;;;;5013168;28;20989;-58
2023/07/14 13:59:45;;;;;;;2.40;2.30;;;;;;;;;;5013463;28;20446;-58
2023/07/14 14:02:23;;;;;;;8.27;7.47;;;;;;;;;;5012802;28;20466;-58
2023/07/14 14:04:50;;;;;;;2.47;2.27;;;;;;;;;;5013150;28;20500;-58
2023/07/14 14:07:17;;;;;;;4.27;3.67;;;;;;;;;;5013127;28;20537;-59
2023/07/14 14:09:43;;;;;;;2.73;2.50;;;;;;;;;;5013301;28;20508;-58
2023/07/14 14:12:11;;;;;;;8.93;3.00;;;;;;;;;;5013250;28;20545;-59
2023/07/14 14:14:40;;;;;;;2.67;2.47;;;;;;;;;;5013250;28;20446;-59
2023/07/14 14:17:12;;;;;;;2.73;2.13;;;;;;;;;;5013182;28;20447;-58
2023/07/14 14:19:40;;;;;;;2.73;2.50;;;;;;;;;;5013029;28;20451;-59
2023/07/14 14:22:10;;;;;;;2.90;2.63;;;;;;;;;;5013178;28;20508;-58
2023/07/14 14:24:37;;;;;;;2.87;2.67;;;;;;;;;;5012967;28;20450;-59
2023/07/14 14:27:04;;;;;;;2.70;2.43;;;;;;;;;;5013019;28;20549;-58
2023/07/14 14:29:31;;;;;;;2.37;2.17;;;;;;;;;;5013036;28;20830;-58
2023/07/14 14:31:58;;;;;;;3.50;2.07;;;;;;;;;;5012997;28;20508;-58
2023/07/14 14:34:26;;;;;;;2.70;2.20;;;;;;;;;;5012839;28;20529;-58
2023/07/14 14:36:54;;;;;;;2.43;2.23;;;;;;;;;;5013142;28;20537;-58
2023/07/14 14:39:22;;;;;;;3.60;2.83;;;;;;;;;;5012839;28;20446;-59
2023/07/14 14:41:51;;;;;;;2.87;2.67;;;;;;;;;;5012881;28;20497;-59
2023/07/14 14:44:20;;;;;;;2.30;2.10;;;;;;;;;;5012802;28;20505;-58
2023/07/14 14:46:47;;;;;;;4.40;2.67;;;;;;;;;;5012621;28;20457;-59
2023/07/14 14:49:15;;;;;;;2.90;2.50;;;;;;;;;;5012902;28;20938;-58
2023/07/14 14:51:42;;;;;;;2.97;2.67;;;;;;;;;;5012834;28;20497;-60
2023/07/14 14:54:10;;;;;;;2.67;2.47;;;;;;;;;;5012795;28;20585;-58